Mobile Downtown Airport Mobile US
ICAO: KBFM
IATA: BFM
Category: Medium
Scheduled Services: No

Elevation: 26 ft
TransAlt. 18000 ft.

Airport Communications:
APP/DEP:118.5
ATIS:135.575
CTAF:118.8
GND:121.7
ANNISTON RDO:112.8
DOWNTOWN TWR:118.8
UNICOM:122.95

KBFM Zoom In..

Runways:

(A) RW 14 length 9618 ft width 150 ft
---- / hdg 140

(B) RW 18 length 7800 ft width 150 ft
---- / hdg 181

(C) RW 32 length 9618 ft width 150 ft
ILS 108.50 / hdg 320

(D) RW 36 length 7800 ft width 150 ft
---- / hdg 1

Location; KBFM
Day. 23 / Time. 14.53 Zulu
* Altimeter: 30.16
* Temperature: 13° c. 55.4°f.
* Wind from: 300° Speed 08 kn.
Dewpoint: -01° c.
Visibility: 10 Statute Miles.
Clouds: Clear (automated report).

KBFM 231453Z 30008KT 10SM CLR 13/M01 A3016 RMK AO2 SLP213 T01281011 51021


Wind From 300°
Speed 08 kn.

YouTube Music Video
 
jpsmedia.com for Web Design  worldairports.se 2018   terms of use